Time;durP1;ratioP1;P1;durP2;ratioP2;P2;SDS_P1;SDS_P2;PMS_P1;PMS_P2;Temp;Humidity;BMP_temperature;BMP_pressure;BME280_temperature;BME280_humidity;BME280_pressure;Samples;Min_cycle;Max_cycle;Signal;HPM_P1;HPM_P2
2021/04/02 00:00:31;;;;;;;12.10;4.47;;;16.50;59.70;;;;;;5027648;28;20060;-69
2021/04/02 00:02:58;;;;;;;14.77;4.10;;;16.40;59.80;;;;;;5020996;28;20050;-69
2021/04/02 00:05:24;;;;;;;8.65;4.15;;;16.30;60.20;;;;;;5018409;28;20456;-69
2021/04/02 00:07:51;;;;;;;11.48;4.15;;;16.30;60.20;;;;;;5021861;28;20052;-69
2021/04/02 00:10:23;;;;;;;7.60;3.80;;;16.30;60.50;;;;;;5014695;28;20041;-70
2021/04/02 00:12:50;;;;;;;10.35;3.95;;;16.20;60.70;;;;;;5023873;28;20057;-69
2021/04/02 00:15:19;;;;;;;7.85;3.22;;;16.10;61.00;;;;;;5020973;28;20949;-69
2021/04/02 00:17:51;;;;;;;11.45;4.47;;;16.10;61.10;;;;;;5027726;28;20037;-69
2021/04/02 00:20:19;;;;;;;13.20;4.45;;;16.00;61.40;;;;;;5022050;28;20050;-69
2021/04/02 00:22:46;;;;;;;12.50;4.45;;;16.00;61.60;;;;;;5018803;28;20049;-69
2021/04/02 00:25:14;;;;;;;7.72;3.40;;;15.90;61.70;;;;;;5027004;28;20037;-70
2021/04/02 00:27:41;;;;;;;12.20;4.15;;;15.80;61.90;;;;;;5028340;28;20034;-69
2021/04/02 00:30:13;;;;;;;12.48;3.92;;;15.70;62.50;;;;;;5020286;28;20050;-69
2021/04/02 00:32:40;;;;;;;12.47;4.40;;;15.60;62.60;;;;;;4996052;28;20041;-69
2021/04/02 00:35:09;;;;;;;11.02;4.57;;;15.50;62.40;;;;;;5032965;28;20041;-69
2021/04/02 00:37:36;;;;;;;11.80;4.50;;;15.40;62.90;;;;;;5020986;28;20551;-69
2021/04/02 00:40:09;;;;;;;10.63;4.07;;;15.30;63.50;;;;;;5028302;28;20054;-69
2021/04/02 00:42:35;;;;;;;10.48;3.70;;;15.20;64.20;;;;;;5020240;28;20051;-69
2021/04/02 00:45:03;;;;;;;10.48;4.05;;;15.00;64.70;;;;;;5025014;28;20103;-69
2021/04/02 00:47:29;;;;;;;11.82;4.45;;;14.90;64.90;;;;;;5028227;28;20042;-69
2021/04/02 00:49:56;;;;;;;11.70;4.78;;;14.70;65.00;;;;;;5026773;28;20045;-69
2021/04/02 00:52:23;;;;;;;11.18;4.38;;;14.70;65.60;;;;;;5013434;28;20034;-69
2021/04/02 00:54:49;;;;;;;12.43;3.95;;;14.60;67.10;;;;;;5011676;28;20137;-70
2021/04/02 00:57:16;;;;;;;14.57;5.35;;;14.40;67.20;;;;;;5011346;28;20046;-68
2021/04/02 00:59:42;;;;;;;8.88;3.97;;;14.30;67.60;;;;;;5016914;28;20056;-68
2021/04/02 01:02:09;;;;;;;10.48;4.53;;;14.20;68.20;;;;;;5027920;28;20409;-69
2021/04/02 01:04:37;;;;;;;12.25;4.47;;;14.10;68.80;;;;;;5029958;28;20034;-68
2021/04/02 01:07:04;;;;;;;14.27;4.90;;;14.10;68.50;;;;;;5014841;28;20050;-68
2021/04/02 01:09:31;;;;;;;10.20;4.10;;;14.00;69.10;;;;;;5019620;28;20566;-68
2021/04/02 01:11:58;;;;;;;10.27;4.20;;;13.90;69.70;;;;;;5044971;28;20045;-69
2021/04/02 01:14:24;;;;;;;11.10;4.25;;;13.70;70.50;;;;;;5028455;28;20164;-68
2021/04/02 01:16:51;;;;;;;11.73;4.70;;;13.60;71.00;;;;;;5034168;28;20063;-68
2021/04/02 01:19:38;;;;;;;11.45;4.43;;;13.60;71.30;;;;;;5023739;28;20165;-68
2021/04/02 01:22:21;;;;;;;11.05;4.20;;;13.40;72.00;;;;;;5011417;28;20073;-68
2021/04/02 01:25:23;;;;;;;14.43;3.63;;;13.40;71.90;;;;;;5021425;28;20096;-69
2021/04/02 01:28:11;;;;;;;8.75;4.85;;;13.40;72.20;;;;;;4999843;28;20129;-69
2021/04/02 01:30:39;;;;;;;15.10;3.97;;;13.40;71.90;;;;;;5021387;28;20038;-68
2021/04/02 01:33:09;;;;;;;12.27;4.80;;;13.40;72.20;;;;;;5005744;28;20054;-70
2021/04/02 01:35:38;;;;;;;12.70;4.72;;;13.30;72.50;;;;;;5005603;28;20045;-68
2021/04/02 01:38:16;;;;;;;8.20;4.35;;;13.30;73.20;;;;;;5033066;28;20509;-69
2021/04/02 01:40:48;;;;;;;10.88;5.07;;;13.20;73.00;;;;;;5025727;28;20367;-69
2021/04/02 01:43:27;;;;;;;14.23;4.70;;;13.20;72.70;;;;;;5039570;28;20408;-68
2021/04/02 01:45:53;;;;;;;11.77;5.05;;;13.30;72.60;;;;;;5023827;28;20054;-68
2021/04/02 01:48:23;;;;;;;15.05;5.22;;;13.20;73.10;;;;;;5033229;28;20044;-68
2021/04/02 01:50:53;;;;;;;11.32;4.75;;;13.20;73.30;;;;;;5018893;28;20123;-69
2021/04/02 01:53:26;;;;;;;10.45;4.45;;;13.20;73.70;;;;;;5011116;28;20076;-68
2021/04/02 01:55:55;;;;;;;11.55;4.60;;;13.20;73.90;;;;;;5031012;28;20034;-68
2021/04/02 01:58:24;;;;;;;10.73;4.65;;;13.20;73.80;;;;;;5014910;28;20129;-68
2021/04/02 02:00:55;;;;;;;11.02;4.85;;;13.20;74.50;;;;;;5013838;28;20058;-68
2021/04/02 02:03:29;;;;;;;13.10;5.25;;;13.20;74.00;;;;;;5025062;28;20053;-69
2021/04/02 02:06:04;;;;;;;12.95;5.72;;;13.20;73.80;;;;;;5033110;28;20781;-68
2021/04/02 02:08:44;;;;;;;10.88;5.00;;;13.30;74.10;;;;;;5023864;28;20519;-68
2021/04/02 02:11:17;;;;;;;11.57;4.60;;;13.20;74.20;;;;;;5038623;28;20054;-68
2021/04/02 02:13:54;;;;;;;20.58;4.93;;;13.30;74.10;;;;;;5025977;28;20033;-69
2021/04/02 02:16:28;;;;;;;10.75;4.53;;;13.40;74.40;;;;;;5023110;28;20650;-68
2021/04/02 02:19:00;;;;;;;13.20;5.35;;;13.30;74.90;;;;;;5023887;28;20044;-68
2021/04/02 02:21:29;;;;;;;12.15;5.10;;;13.20;74.80;;;;;;5015956;28;20059;-68
2021/04/02 02:24:03;;;;;;;14.20;5.60;;;13.30;86.60;;;;;;5005336;28;20057;-69
2021/04/02 02:26:30;;;;;;;10.38;4.90;;;13.20;75.50;;;;;;5026929;28;20425;-70
2021/04/02 02:28:57;;;;;;;11.00;5.13;;;13.20;75.90;;;;;;5027162;28;20103;-68
2021/04/02 02:31:28;;;;;;;11.43;4.60;;;13.20;75.40;;;;;;5015177;28;20034;-70
2021/04/02 02:33:56;;;;;;;12.07;5.18;;;13.20;76.00;;;;;;5016376;28;20072;-68
2021/04/02 02:36:33;;;;;;;11.90;4.95;;;13.10;75.50;;;;;;4998782;28;20167;-68
2021/04/02 02:39:01;;;;;;;11.35;4.65;;;13.10;75.70;;;;;;5018341;28;20057;-68
2021/04/02 02:41:29;;;;;;;12.20;4.95;;;13.10;75.30;;;;;;5030466;28;20053;-68
2021/04/02 02:43:59;;;;;;;12.77;5.55;;;13.20;74.50;;;;;;5021572;28;22290;-69
2021/04/02 02:46:28;;;;;;;12.93;5.43;;;13.30;75.00;;;;;;5023080;28;20471;-69
2021/04/02 02:49:00;;;;;;;11.10;4.78;;;13.30;74.70;;;;;;5024519;28;20045;-68
2021/04/02 02:51:32;;;;;;;14.57;4.90;;;13.40;74.90;;;;;;5011190;28;20053;-68
2021/04/02 02:54:04;;;;;;;11.13;5.00;;;13.40;75.60;;;;;;5013673;28;20038;-69
2021/04/02 02:56:34;;;;;;;13.73;4.93;;;13.40;75.80;;;;;;5023723;28;20054;-70
2021/04/02 02:59:03;;;;;;;10.95;4.82;;;13.50;76.30;;;;;;5033216;28;20037;-68
2021/04/02 03:01:34;;;;;;;14.13;4.97;;;13.40;76.70;;;;;;5028705;28;20047;-68
2021/04/02 03:04:02;;;;;;;13.73;5.22;;;13.40;76.30;;;;;;5020283;28;20497;-70
2021/04/02 03:06:32;;;;;;;12.18;5.50;;;13.40;78.20;;;;;;5031974;28;20048;-68
2021/04/02 03:09:00;;;;;;;11.80;4.80;;;13.30;79.70;;;;;;5029156;28;20451;-69
2021/04/02 03:11:31;;;;;;;9.45;4.30;;;13.30;79.70;;;;;;5025953;28;20052;-69
2021/04/02 03:13:59;;;;;;;12.75;4.93;;;13.40;79.30;;;;;;5002043;28;20049;-69
2021/04/02 03:16:29;;;;;;;13.20;4.88;;;13.40;77.80;;;;;;5029223;28;20037;-68
2021/04/02 03:19:01;;;;;;;11.32;4.68;;;13.40;79.30;;;;;;5012996;28;20046;-69
2021/04/02 03:21:30;;;;;;;12.82;5.07;;;13.40;80.60;;;;;;5029784;28;20512;-69
2021/04/02 03:24:06;;;;;;;15.05;5.85;;;13.40;79.60;;;;;;5010138;28;20044;-70
2021/04/02 03:26:34;;;;;;;13.68;4.68;;;13.30;79.10;;;;;;4999184;28;20053;-68
2021/04/02 03:29:04;;;;;;;12.77;5.60;;;13.20;78.70;;;;;;5006550;28;20095;-69
2021/04/02 03:31:37;;;;;;;13.70;4.78;;;12.90;79.70;;;;;;5018715;28;20038;-68
2021/04/02 03:34:09;;;;;;;15.13;4.72;;;12.90;80.20;;;;;;5017583;28;20049;-69
2021/04/02 03:36:40;;;;;;;11.65;4.47;;;13.00;81.00;;;;;;5027835;28;20172;-69
2021/04/02 03:39:20;;;;;;;11.85;4.95;;;13.10;79.70;;;;;;5024724;28;20045;-68
2021/04/02 03:41:52;;;;;;;9.95;5.10;;;13.00;78.80;;;;;;5015493;28;20037;-68
2021/04/02 03:44:23;;;;;;;11.77;4.78;;;13.00;78.00;;;;;;5030826;28;20049;-68
2021/04/02 03:46:53;;;;;;;12.23;5.40;;;12.90;78.40;;;;;;5029671;28;20053;-68
2021/04/02 03:49:27;;;;;;;14.82;5.63;;;12.80;78.60;;;;;;5026080;28;20387;-69
2021/04/02 03:51:59;;;;;;;12.00;4.43;;;12.80;78.50;;;;;;5025823;28;20087;-69
2021/04/02 03:54:29;;;;;;;17.23;5.05;;;12.80;79.00;;;;;;5004305;28;20077;-68
2021/04/02 03:56:59;;;;;;;14.98;5.40;;;12.80;78.30;;;;;;5013100;28;20054;-68
2021/04/02 03:59:32;;;;;;;11.82;5.03;;;12.90;77.80;;;;;;5027402;28;20069;-69
2021/04/02 04:01:59;;;;;;;15.63;5.68;;;12.90;77.90;;;;;;5022100;28;20050;-69
2021/04/02 04:04:31;;;;;;;13.95;6.25;;;13.00;76.60;;;;;;5001850;28;20073;-69
2021/04/02 04:07:04;;;;;;;16.38;5.78;;;13.00;77.30;;;;;;5010668;28;20195;-69
2021/04/02 04:09:34;;;;;;;15.63;5.70;;;13.10;76.10;;;;;;5034076;28;20050;-68
2021/04/02 04:12:10;;;;;;;15.57;5.97;;;13.10;76.30;;;;;;5014601;28;20038;-69
2021/04/02 04:14:49;;;;;;;14.77;6.00;;;13.10;75.70;;;;;;5019801;28;20041;-69
2021/04/02 04:17:21;;;;;;;15.98;6.10;;;13.20;75.50;;;;;;5044140;28;20516;-68
2021/04/02 04:19:54;;;;;;;13.55;5.50;;;13.30;75.80;;;;;;5012913;28;20100;-68
2021/04/02 04:22:25;;;;;;;15.00;6.30;;;13.30;76.00;;;;;;5027430;28;20100;-69
2021/04/02 04:24:54;;;;;;;15.73;6.57;;;13.30;76.00;;;;;;5017168;28;20065;-70
2021/04/02 04:27:24;;;;;;;15.52;6.10;;;13.30;76.00;;;;;;5022204;28;20046;-69
2021/04/02 04:29:54;;;;;;;14.77;5.93;;;13.20;77.00;;;;;;5027768;28;20112;-69
2021/04/02 04:32:22;;;;;;;14.90;6.45;;;13.20;76.20;;;;;;5027727;28;20038;-68
2021/04/02 04:34:49;;;;;;;18.23;8.77;;;13.30;76.20;;;;;;5024008;28;20366;-69
2021/04/02 04:37:21;;;;;;;24.55;7.05;;;13.30;75.50;;;;;;5024494;28;20132;-69
2021/04/02 04:39:49;;;;;;;14.00;6.30;;;13.20;76.30;;;;;;5002195;28;20540;-71
2021/04/02 04:42:17;;;;;;;14.50;6.88;;;13.20;76.30;;;;;;5011071;28;20048;-68
2021/04/02 04:44:48;;;;;;;16.55;6.93;;;13.10;76.10;;;;;;5014640;28;20038;-68
2021/04/02 04:47:15;;;;;;;14.65;6.38;;;13.10;77.30;;;;;;5028437;28;20485;-68
2021/04/02 04:49:42;;;;;;;16.17;6.38;;;13.10;77.40;;;;;;5028158;28;20033;-68
2021/04/02 04:52:11;;;;;;;19.27;6.88;;;13.00;77.60;;;;;;5011427;28;20046;-69
2021/04/02 04:54:38;;;;;;;32.88;12.32;;;13.00;78.20;;;;;;5011696;28;20041;-69
2021/04/02 04:57:07;;;;;;;24.42;9.20;;;13.00;77.50;;;;;;5022261;28;20057;-68
2021/04/02 04:59:34;;;;;;;30.67;10.82;;;13.10;77.90;;;;;;5021121;28;20440;-68
2021/04/02 05:02:03;;;;;;;22.80;9.63;;;13.20;78.30;;;;;;5015667;28;20046;-69
2021/04/02 05:04:31;;;;;;;32.80;11.02;;;13.10;79.00;;;;;;5022097;28;20513;-70
2021/04/02 05:07:01;;;;;;;26.92;11.07;;;13.10;79.10;;;;;;5026967;28;20092;-68
2021/04/02 05:09:28;;;;;;;21.70;10.02;;;13.10;79.00;;;;;;5018078;28;20054;-69
2021/04/02 05:12:01;;;;;;;27.50;10.85;;;13.10;78.50;;;;;;5008249;28;20046;-68
2021/04/02 05:14:28;;;;;;;53.38;15.77;;;13.10;79.00;;;;;;5021230;28;20056;-69
2021/04/02 05:16:56;;;;;;;57.60;16.08;;;13.10;77.70;;;;;;5022767;28;20393;-68
2021/04/02 05:19:23;;;;;;;39.38;11.88;;;13.10;77.80;;;;;;5022517;28;20044;-68
2021/04/02 05:21:49;;;;;;;33.78;12.10;;;13.20;78.50;;;;;;5024195;28;20056;-69
2021/04/02 05:24:16;;;;;;;37.58;13.05;;;13.30;83.70;;;;;;5028028;28;20480;-69
2021/04/02 05:26:43;;;;;;;32.78;12.75;;;13.30;87.40;;;;;;5038012;28;20484;-69
2021/04/02 05:29:09;;;;;;;28.33;7.80;;;13.30;87.80;;;;;;5015969;28;20096;-68
2021/04/02 05:31:37;;;;;;;22.90;8.32;;;13.30;81.20;;;;;;5019124;28;20041;-68
2021/04/02 05:34:13;;;;;;;24.13;9.85;;;13.40;86.70;;;;;;5007717;28;20044;-69
2021/04/02 05:36:40;;;;;;;21.92;8.50;;;13.40;90.10;;;;;;5043050;28;20041;-68
2021/04/02 05:39:07;;;;;;;19.33;8.55;;;13.40;90.70;;;;;;5023710;28;20136;-68
2021/04/02 05:41:47;;;;;;;24.70;8.57;;;13.40;91.50;;;;;;5043270;28;20087;-68
2021/04/02 05:44:18;;;;;;;17.95;7.97;;;13.60;92.60;;;;;;5033052;28;20041;-69
2021/04/02 05:46:48;;;;;;;18.15;7.40;;;13.60;89.70;;;;;;5024650;28;20041;-68
2021/04/02 05:49:20;;;;;;;18.08;6.72;;;13.80;84.80;;;;;;5003037;28;20049;-71
2021/04/02 05:51:51;;;;;;;21.23;6.40;;;14.00;86.00;;;;;;5010018;28;20061;-68
2021/04/02 05:54:30;;;;;;;25.08;6.18;;;14.20;83.70;;;;;;5031144;28;20050;-68
2021/04/02 05:56:58;;;;;;;15.90;6.32;;;14.40;79.30;;;;;;5029219;28;20095;-68
2021/04/02 05:59:25;;;;;;;14.52;6.50;;;14.50;78.40;;;;;;5032884;28;20057;-68
2021/04/02 06:01:52;;;;;;;15.45;6.00;;;14.70;76.90;;;;;;5024798;28;20512;-69
2021/04/02 06:04:19;;;;;;;16.95;6.18;;;14.70;76.00;;;;;;5029500;28;20053;-67
2021/04/02 06:06:47;;;;;;;15.85;6.95;;;14.80;75.40;;;;;;5012779;28;20520;-69
2021/04/02 06:09:14;;;;;;;21.08;7.47;;;14.80;73.80;;;;;;5029187;28;20050;-70
2021/04/02 06:11:42;;;;;;;17.05;6.70;;;14.90;74.50;;;;;;5047580;28;20046;-70
2021/04/02 06:14:10;;;;;;;20.40;5.80;;;15.00;74.10;;;;;;5021343;28;20042;-69
2021/04/02 06:16:37;;;;;;;12.63;5.65;;;15.00;73.80;;;;;;5027479;28;20041;-69
2021/04/02 06:19:10;;;;;;;16.80;6.40;;;15.00;72.90;;;;;;5017617;28;20100;-69
2021/04/02 06:21:52;;;;;;;15.93;5.90;;;15.00;72.80;;;;;;5033225;28;20054;-70
2021/04/02 06:25:00;;;;;;;13.68;5.60;;;15.00;72.70;;;;;;5017486;28;20039;-68
2021/04/02 06:27:30;;;;;;;13.18;4.63;;;15.10;72.20;;;;;;4981557;28;20053;-68
2021/04/02 06:30:03;;;;;;;16.70;4.90;;;15.10;71.10;;;;;;4997385;28;20108;-67
2021/04/02 06:32:34;;;;;;;;;;;15.20;70.80;;;;;;4966252;28;20519;-67
2021/04/02 06:35:09;;;;;;;15.95;5.07;;;15.30;70.10;;;;;;4994141;28;19982;-70
2021/04/02 06:37:36;;;;;;;10.85;5.05;;;15.30;69.70;;;;;;4977987;28;20043;-70
2021/04/02 06:40:19;;;;;;;13.00;4.40;;;15.50;68.60;;;;;;4981669;28;20144;-67
2021/04/02 06:42:47;;;;;;;13.77;5.10;;;15.60;68.60;;;;;;5014040;28;20045;-67
2021/04/02 06:45:20;;;;;;;16.27;4.88;;;15.70;67.40;;;;;;4998511;28;20046;-67
2021/04/02 06:47:47;;;;;;;13.65;5.05;;;15.80;67.40;;;;;;4990091;28;20060;-68
2021/04/02 06:50:26;;;;;;;13.55;4.57;;;15.90;67.40;;;;;;5002598;28;20045;-68
2021/04/02 06:52:58;;;;;;;11.07;4.93;;;15.90;66.30;;;;;;4997874;28;20445;-67
2021/04/02 06:55:26;;;;;;;11.68;5.20;;;16.00;66.40;;;;;;5000070;28;20048;-67
2021/04/02 06:57:55;;;;;;;14.73;4.63;;;16.10;66.30;;;;;;4993487;28;20123;-67
2021/04/02 07:00:28;;;;;;;11.32;4.95;;;16.20;64.70;;;;;;4998309;28;20144;-67
2021/04/02 07:02:56;;;;;;;;;;;16.20;64.20;;;;;;5032695;28;20496;-68
2021/04/02 07:05:25;;;;;;;15.20;5.30;;;16.30;64.80;;;;;;5032978;28;19921;-67
2021/04/02 07:08:15;;;;;;;13.70;4.97;;;16.30;64.10;;;;;;5031076;28;20435;-67
2021/04/02 07:10:42;;;;;;;14.73;4.80;;;16.40;63.60;;;;;;5030696;28;20050;-68
2021/04/02 07:13:12;;;;;;;13.15;5.13;;;16.50;63.90;;;;;;5031283;28;20484;-69
2021/04/02 07:15:39;;;;;;;12.10;4.70;;;16.50;63.60;;;;;;5015872;28;20053;-68
2021/04/02 07:18:09;;;;;;;9.88;4.35;;;16.50;63.10;;;;;;5032827;28;20048;-68
2021/04/02 07:20:36;;;;;;;13.60;4.95;;;16.70;64.40;;;;;;5029474;28;20049;-68
2021/04/02 07:23:04;;;;;;;14.55;4.70;;;16.50;63.40;;;;;;5041870;28;20045;-68
2021/04/02 07:25:32;;;;;;;19.45;5.72;;;16.50;64.10;;;;;;5032750;28;20123;-68
2021/04/02 07:27:58;;;;;;;10.02;4.38;;;16.60;63.40;;;;;;5048036;28;20049;-68
2021/04/02 07:30:30;;;;;;;9.98;4.28;;;16.60;63.40;;;;;;5016589;28;20065;-68
2021/04/02 07:33:11;;;;;;;13.55;5.10;;;16.80;64.20;;;;;;5014227;28;20543;-68
2021/04/02 07:35:40;;;;;;;11.00;4.60;;;16.90;62.80;;;;;;5030091;28;20048;-68
2021/04/02 07:38:16;;;;;;;14.02;4.55;;;17.00;61.40;;;;;;5030322;28;20095;-68
2021/04/02 07:40:49;;;;;;;11.82;4.60;;;17.20;62.00;;;;;;5033198;28;20045;-68
2021/04/02 07:43:19;;;;;;;13.45;4.55;;;17.20;60.90;;;;;;5019950;28;20049;-69
2021/04/02 07:45:52;;;;;;;15.32;5.18;;;17.30;60.30;;;;;;4996225;28;20104;-68
2021/04/02 07:48:24;;;;;;;10.25;4.65;;;17.40;61.00;;;;;;5000752;28;20050;-68
2021/04/02 07:50:57;;;;;;;10.80;4.60;;;17.50;60.00;;;;;;5028163;28;20046;-68
2021/04/02 07:53:24;;;;;;;10.98;4.97;;;17.60;59.10;;;;;;5015358;28;20099;-69
2021/04/02 07:56:18;;;;;;;12.52;4.53;;;17.80;59.60;;;;;;5035932;28;20520;-68
2021/04/02 07:58:53;;;;;;;11.63;4.30;;;18.00;58.50;;;;;;5015726;28;20038;-68
2021/04/02 08:01:23;;;;;;;14.20;4.95;;;18.20;57.90;;;;;;5015923;28;20136;-69
2021/04/02 08:03:51;;;;;;;14.23;4.50;;;18.20;57.50;;;;;;5006959;28;20069;-68
2021/04/02 08:06:38;;;;;;;12.65;5.07;;;18.30;57.90;;;;;;5012264;28;20064;-68
2021/04/02 08:09:08;;;;;;;13.40;5.60;;;18.30;57.30;;;;;;5012770;28;20172;-69
2021/04/02 08:11:46;;;;;;;15.95;5.88;;;18.30;57.60;;;;;;5013440;28;20042;-69
2021/04/02 08:14:13;;;;;;;11.05;4.75;;;18.20;55.60;;;;;;5032709;28;20434;-68
2021/04/02 08:16:43;;;;;;;16.75;5.30;;;18.10;57.40;;;;;;5031788;28;20404;-68
2021/04/02 08:19:30;;;;;;;13.23;4.40;;;18.30;57.10;;;;;;5031718;28;20065;-68
2021/04/02 08:22:12;;;;;;;13.02;5.13;;;18.40;57.00;;;;;;5007451;28;20100;-68
2021/04/02 08:24:46;;;;;;;9.88;4.88;;;18.30;56.00;;;;;;5009877;28;20389;-69
2021/04/02 08:27:14;;;;;;;8.95;4.30;;;18.40;57.00;;;;;;5012194;28;20104;-68
2021/04/02 08:29:44;;;;;;;14.30;4.97;;;18.50;57.20;;;;;;5007773;28;20052;-68
2021/04/02 08:32:16;;;;;;;10.18;4.97;;;18.60;55.40;;;;;;5015210;28;20547;-68
2021/04/02 08:34:43;;;;;;;11.15;5.55;;;18.60;55.10;;;;;;5029086;28;20083;-68
2021/04/02 08:37:14;;;;;;;14.35;5.60;;;18.80;55.20;;;;;;5029523;28;20127;-68
2021/04/02 08:39:41;;;;;;;10.38;4.85;;;18.70;54.00;;;;;;5013660;28;20505;-68
2021/04/02 08:42:12;;;;;;;11.05;5.30;;;18.70;55.10;;;;;;4995605;28;20096;-69
2021/04/02 08:44:49;;;;;;;12.10;5.20;;;18.70;54.60;;;;;;5029108;28;20091;-68
2021/04/02 08:47:18;;;;;;;14.32;5.57;;;18.70;53.40;;;;;;5030792;28;20124;-69
2021/04/02 08:49:53;;;;;;;13.15;5.68;;;18.90;53.30;;;;;;5043750;28;20112;-68
2021/04/02 08:52:28;;;;;;;11.77;5.13;;;19.10;52.10;;;;;;5032747;28;20045;-68
2021/04/02 08:55:07;;;;;;;11.13;5.05;;;19.10;52.90;;;;;;5002232;28;20113;-68
2021/04/02 08:57:45;;;;;;;13.85;5.53;;;19.20;51.80;;;;;;5022105;28;20038;-68
2021/04/02 09:00:13;;;;;;;12.07;5.35;;;19.20;51.70;;;;;;5041837;28;20045;-68
2021/04/02 09:02:40;;;;;;;13.98;5.70;;;19.20;52.80;;;;;;5026980;28;20038;-68
2021/04/02 09:05:08;;;;;;;11.13;5.30;;;19.20;50.60;;;;;;5029202;28;20053;-68
2021/04/02 09:07:39;;;;;;;11.13;5.13;;;19.30;51.50;;;;;;5013753;28;20604;-68
2021/04/02 09:10:21;;;;;;;13.70;5.75;;;19.50;52.00;;;;;;5039975;28;20458;-68
2021/04/02 09:12:50;;;;;;;15.20;6.88;;;19.20;51.60;;;;;;5016881;28;20048;-69
2021/04/02 09:15:22;;;;;;;12.93;5.22;;;19.20;52.40;;;;;;5021318;28;20045;-69
2021/04/02 09:17:48;;;;;;;10.18;5.20;;;19.30;52.70;;;;;;5024797;28;20533;-68
2021/04/02 09:20:18;;;;;;;12.52;5.53;;;19.60;52.40;;;;;;5031406;28;20095;-68
2021/04/02 09:22:48;;;;;;;14.90;6.03;;;19.50;51.30;;;;;;5027637;28;20041;-68
2021/04/02 09:25:21;;;;;;;12.25;5.32;;;19.30;51.40;;;;;;5019101;28;20044;-69
2021/04/02 09:27:51;;;;;;;14.20;5.13;;;19.60;52.80;;;;;;5035470;28;20087;-68
2021/04/02 09:30:28;;;;;;;16.50;6.10;;;19.70;52.00;;;;;;5016491;28;20144;-68
2021/04/02 09:32:57;;;;;;;12.88;6.03;;;20.00;51.40;;;;;;5034952;28;20067;-68
2021/04/02 09:35:24;;;;;;;14.65;6.18;;;19.80;48.50;;;;;;5024353;28;20158;-70
2021/04/02 09:37:51;;;;;;;13.18;6.00;;;19.60;50.10;;;;;;5027815;28;20108;-69
2021/04/02 09:40:18;;;;;;;14.32;6.15;;;20.10;50.50;;;;;;5029451;28;20061;-68
2021/04/02 09:42:50;;;;;;;11.27;5.47;;;19.80;51.50;;;;;;5026819;28;20041;-67
2021/04/02 09:45:16;;;;;;;10.98;5.47;;;20.10;51.00;;;;;;5015891;28;20125;-71
2021/04/02 09:47:48;;;;;;;11.15;4.88;;;20.20;47.30;;;;;;5026512;28;20049;-70
2021/04/02 09:50:17;;;;;;;12.18;4.53;;;20.00;47.00;;;;;;5022642;28;20490;-71
2021/04/02 09:52:46;;;;;;;10.45;5.03;;;19.60;46.20;;;;;;5057293;28;20066;-69
2021/04/02 09:55:14;;;;;;;9.68;5.50;;;19.60;46.40;;;;;;5025809;28;20065;-69
2021/04/02 09:57:41;;;;;;;15.82;6.30;;;19.50;48.30;;;;;;5001942;28;20037;-69
2021/04/02 10:00:12;;;;;;;13.18;5.90;;;19.80;46.50;;;;;;5018309;28;20049;-69
2021/04/02 10:02:40;;;;;;;14.48;4.95;;;20.00;46.00;;;;;;5014143;28;20052;-70
2021/04/02 10:05:08;;;;;;;12.82;5.20;;;20.10;47.10;;;;;;5018596;28;20493;-69
2021/04/02 10:07:35;;;;;;;15.23;4.22;;;19.90;45.50;;;;;;5018633;28;20062;-73
2021/04/02 10:10:01;;;;;;;15.88;4.85;;;20.10;44.20;;;;;;5036228;28;20056;-74
2021/04/02 10:12:30;;;;;;;13.23;4.28;;;20.40;43.00;;;;;;5009367;28;20042;-73
2021/04/02 10:15:02;;;;;;;11.80;4.35;;;20.60;43.30;;;;;;5030228;28;20053;-74
2021/04/02 10:17:28;;;;;;;11.98;5.10;;;20.50;42.20;;;;;;5012433;28;20149;-74
2021/04/02 10:19:55;;;;;;;13.10;5.70;;;20.50;43.30;;;;;;5024505;28;20038;-74
2021/04/02 10:22:21;;;;;;;11.00;4.47;;;20.30;43.80;;;;;;5022886;28;20045;-74
2021/04/02 10:24:51;;;;;;;12.65;5.47;;;20.50;44.00;;;;;;5024804;28;20045;-74
2021/04/02 10:27:17;;;;;;;15.85;5.78;;;20.60;43.80;;;;;;5030053;28;20407;-73
2021/04/02 10:29:44;;;;;;;13.82;5.70;;;20.70;44.50;;;;;;5027985;28;20538;-74
2021/04/02 10:32:11;;;;;;;12.93;5.68;;;20.70;43.30;;;;;;5027619;28;20049;-73
2021/04/02 10:34:38;;;;;;;13.18;5.40;;;20.90;43.90;;;;;;5022714;28;20034;-74
2021/04/02 10:37:08;;;;;;;16.80;5.47;;;21.00;43.10;;;;;;5029283;28;20343;-73
2021/04/02 10:39:35;;;;;;;13.15;5.47;;;20.80;43.20;;;;;;5020596;28;20049;-73
2021/04/02 10:42:01;;;;;;;15.32;5.85;;;20.90;44.50;;;;;;5022076;28;20048;-74
2021/04/02 10:44:31;;;;;;;17.25;6.00;;;20.90;44.00;;;;;;5026863;28;20049;-75
2021/04/02 10:46:58;;;;;;;17.40;5.68;;;20.60;44.70;;;;;;5016402;28;20112;-74
2021/04/02 10:49:24;;;;;;;16.10;6.65;;;20.50;45.50;;;;;;5020138;28;20096;-74
2021/04/02 10:51:50;;;;;;;16.83;7.07;;;20.10;44.90;;;;;;5028576;28;20049;-74
2021/04/02 10:54:17;;;;;;;15.98;5.85;;;19.50;45.20;;;;;;5023508;28;20100;-74
2021/04/02 10:56:44;;;;;;;19.60;6.03;;;19.70;46.10;;;;;;5016320;28;20493;-75
2021/04/02 10:59:13;;;;;;;13.95;6.35;;;20.00;44.40;;;;;;5028445;28;20176;-70
2021/04/02 11:01:40;;;;;;;14.25;6.25;;;19.90;43.10;;;;;;5015931;28;20382;-70
2021/04/02 11:04:06;;;;;;;14.63;6.47;;;20.10;43.70;;;;;;5016397;28;20041;-69
2021/04/02 11:06:33;;;;;;;32.97;7.18;;;20.10;43.80;;;;;;5025262;28;20048;-70
2021/04/02 11:08:59;;;;;;;23.40;6.18;;;20.50;42.90;;;;;;5017782;28;20061;-73
2021/04/02 11:11:26;;;;;;;18.55;5.78;;;20.30;40.20;;;;;;5014940;28;20042;-72
2021/04/02 11:13:53;;;;;;;25.45;5.90;;;20.00;40.60;;;;;;5010782;28;20040;-73
2021/04/02 11:16:19;;;;;;;19.67;6.40;;;19.80;40.90;;;;;;5041922;28;20065;-73
2021/04/02 11:18:46;;;;;;;19.75;6.28;;;19.80;42.10;;;;;;5021634;28;20092;-70
2021/04/02 11:21:13;;;;;;;12.35;4.95;;;19.80;42.80;;;;;;5017455;28;20041;-68
2021/04/02 11:23:40;;;;;;;17.77;5.80;;;19.80;42.10;;;;;;5014390;28;20054;-71
2021/04/02 11:26:07;;;;;;;13.70;5.80;;;20.20;42.60;;;;;;5013567;28;20045;-73
2021/04/02 11:28:42;;;;;;;36.25;7.25;;;20.50;41.70;;;;;;5024887;28;20599;-73
2021/04/02 11:31:13;;;;;;;23.58;5.75;;;19.90;41.80;;;;;;5033756;28;20054;-73
2021/04/02 11:33:40;;;;;;;25.27;5.88;;;20.10;42.10;;;;;;5015016;28;20034;-73
2021/04/02 11:36:07;;;;;;;21.40;5.65;;;20.00;41.80;;;;;;5015200;28;20037;-71
2021/04/02 11:38:36;;;;;;;14.77;5.75;;;20.10;42.10;;;;;;5017291;28;20054;-74
2021/04/02 11:44:20;;;;;;;16.92;5.75;;;20.10;41.50;;;;;;4829046;24;20047;-62
2021/04/02 11:46:48;;;;;;;12.82;5.40;;;20.50;41.20;;;;;;4779223;29;20387;-67
2021/04/02 11:49:18;;;;;;;14.80;5.70;;;20.80;40.80;;;;;;4778164;30;20050;-67
2021/04/02 11:51:45;;;;;;;14.23;6.40;;;20.90;41.40;;;;;;4782516;29;20130;-66
2021/04/02 11:54:12;;;;;;;14.32;5.55;;;20.60;41.30;;;;;;4777844;30;20440;-58
2021/04/02 11:56:39;;;;;;;11.20;5.18;;;21.20;41.90;;;;;;4784531;29;20089;-58
2021/04/02 19:57:44;;;;;;;13.32;4.13;;;12.80;64.10;;;;;;4765139;29;20586;-72
2021/04/02 20:00:15;;;;;;;8.68;3.83;;;12.70;64.80;;;;;;4747593;29;20055;-73
2021/04/02 20:02:43;;;;;;;10.05;3.90;;;12.60;65.70;;;;;;4771405;29;20054;-73
2021/04/02 20:05:12;;;;;;;5.82;2.50;;;12.40;67.00;;;;;;4776066;29;20146;-74
2021/04/02 20:10:42;;;;;;;7.82;1.83;;;12.60;68.50;;;;;;5428803;24;20058;-71
2021/04/02 20:13:09;;;;;;;6.22;2.90;;;12.40;69.00;;;;;;4846200;29;20045;-70
2021/04/02 20:15:37;;;;;;;7.43;3.05;;;12.30;69.00;;;;;;4854680;29;20037;-68
2021/04/02 20:18:04;;;;;;;8.80;2.58;;;12.20;69.30;;;;;;4839839;29;20120;-68
2021/04/02 20:20:32;;;;;;;8.90;2.85;;;12.10;69.60;;;;;;5008481;24;20056;-71
2021/04/02 20:22:59;;;;;;;5.45;2.80;;;12.10;69.80;;;;;;4851975;29;20045;-70
2021/04/02 20:25:26;;;;;;;9.63;3.60;;;12.00;71.00;;;;;;4845390;29;20045;-70
2021/04/02 20:27:54;;;;;;;10.23;3.97;;;11.90;70.20;;;;;;4869888;29;20514;-69
2021/04/02 20:30:21;;;;;;;12.05;6.00;;;11.90;70.40;;;;;;4866894;29;20049;-70
2021/04/02 20:32:48;;;;;;;17.25;8.48;;;11.80;70.80;;;;;;4856790;29;20049;-70
2021/04/02 20:35:17;;;;;;;19.10;8.20;;;11.70;70.70;;;;;;4852602;29;20484;-71
2021/04/02 20:37:45;;;;;;;14.48;7.47;;;11.70;70.90;;;;;;4852428;29;20692;-70
2021/04/02 21:00:10;;;;;;;23.75;9.75;;;11.20;71.40;;;;;;4862454;23;20045;-64
2021/04/02 21:02:45;;;;;;;17.95;8.65;;;11.10;71.90;;;;;;4842349;29;20050;-63
2021/04/02 21:05:13;;;;;;;19.48;8.77;;;11.10;72.10;;;;;;4854945;29;20057;-63
2021/04/02 21:07:40;;;;;;;20.85;9.15;;;11.10;71.90;;;;;;4843698;29;20053;-63
2021/04/02 21:10:08;;;;;;;21.30;9.45;;;11.00;72.30;;;;;;4845857;29;20457;-63
2021/04/02 21:12:34;;;;;;;18.15;7.65;;;10.80;72.80;;;;;;4840847;29;20140;-63
2021/04/02 21:15:03;;;;;;;20.00;8.02;;;10.80;73.30;;;;;;4850156;29;20062;-63
2021/04/02 21:17:30;;;;;;;24.63;7.60;;;10.80;73.30;;;;;;4844747;29;20054;-63